createdAt,value
2018-03-07T00:00:32.620Z,75.70
2018-03-07T00:03:00.104Z,75.60
2018-03-07T00:05:27.584Z,76.50
2018-03-07T00:07:55.850Z,75.80
2018-03-07T00:10:24.099Z,75.70
2018-03-07T00:12:51.544Z,75.60
2018-03-07T00:15:19.019Z,75.60
2018-03-07T00:17:47.178Z,75.60
2018-03-07T00:20:14.647Z,75.70
2018-03-07T00:22:42.112Z,75.60
2018-03-07T00:25:09.599Z,75.60
2018-03-07T00:27:37.068Z,75.70
2018-03-07T00:30:04.547Z,75.80
2018-03-07T00:32:32.000Z,75.90
2018-03-07T00:34:59.483Z,76.10
2018-03-07T00:37:26.943Z,76.20
2018-03-07T00:39:54.439Z,76.20
2018-03-07T00:42:21.935Z,76.00
2018-03-07T00:44:49.380Z,76.00
2018-03-07T00:47:16.861Z,75.90
2018-03-07T00:49:44.329Z,75.80
2018-03-07T00:52:11.795Z,75.80
2018-03-07T00:54:39.542Z,75.80
2018-03-07T00:57:07.016Z,75.70
2018-03-07T00:59:34.485Z,75.80
2018-03-07T01:02:02.744Z,75.80
2018-03-07T01:04:30.199Z,75.80
2018-03-07T01:06:57.674Z,76.00
2018-03-07T01:09:25.139Z,75.50
2018-03-07T01:11:52.603Z,75.60
2018-03-07T01:14:20.099Z,75.70
2018-03-07T01:16:47.539Z,76.30
2018-03-07T01:19:15.011Z,76.70
2018-03-07T01:21:42.458Z,77.00
2018-03-07T01:24:09.928Z,77.70
2018-03-07T01:26:37.377Z,78.20
2018-03-07T01:29:04.848Z,77.70
2018-03-07T01:31:32.296Z,77.00
2018-03-07T01:33:59.860Z,76.90
2018-03-07T01:36:27.307Z,77.60
2018-03-07T01:38:54.787Z,78.20
2018-03-07T01:41:22.271Z,78.10
2018-03-07T01:43:49.730Z,78.30
2018-03-07T01:46:17.214Z,78.00
2018-03-07T01:48:44.679Z,77.90
2018-03-07T01:51:12.157Z,78.20
2018-03-07T01:53:39.594Z,78.30
2018-03-07T01:56:07.054Z,78.20
2018-03-07T01:58:34.569Z,78.50
2018-03-07T02:01:02.013Z,78.80
2018-03-07T02:03:30.272Z,79.50
2018-03-07T02:05:57.722Z,79.50
2018-03-07T02:08:25.220Z,79.40
2018-03-07T02:10:52.669Z,79.90
2018-03-07T02:13:20.147Z,80.00
2018-03-07T02:15:47.922Z,79.70
2018-03-07T02:18:15.396Z,79.20
2018-03-07T02:20:42.871Z,78.90
2018-03-07T02:23:11.101Z,79.60
2018-03-07T02:25:38.567Z,79.60
2018-03-07T02:28:06.008Z,80.50
2018-03-07T02:30:33.487Z,80.60
2018-03-07T02:33:00.945Z,80.90
2018-03-07T02:35:28.435Z,80.70
2018-03-07T02:37:55.911Z,80.80
2018-03-07T02:40:24.132Z,81.00
2018-03-07T02:42:51.612Z,81.00
2018-03-07T02:45:19.076Z,80.80
2018-03-07T02:47:46.556Z,80.90
2018-03-07T02:50:14.776Z,80.00
2018-03-07T02:52:42.243Z,80.00
2018-03-07T02:55:09.716Z,80.30
2018-03-07T02:57:37.227Z,81.20
2018-03-07T03:00:04.698Z,80.90
2018-03-07T03:02:32.152Z,80.70
2018-03-07T03:04:59.633Z,80.40
2018-03-07T03:07:27.078Z,80.00
2018-03-07T03:09:54.565Z,80.00
2018-03-07T03:12:22.784Z,80.60
2018-03-07T03:14:50.227Z,80.60
2018-03-07T03:17:17.693Z,80.30
2018-03-07T03:19:45.171Z,80.10
2018-03-07T03:22:12.627Z,79.90
2018-03-07T03:24:40.719Z,80.20
2018-03-07T03:27:08.174Z,80.00
2018-03-07T03:29:35.639Z,79.80
2018-03-07T03:32:03.091Z,79.80
2018-03-07T03:34:30.564Z,79.90
2018-03-07T03:36:58.842Z,80.40
2018-03-07T03:39:26.279Z,80.30
2018-03-07T03:41:53.728Z,80.40
2018-03-07T03:44:21.196Z,80.80
2018-03-07T03:46:48.663Z,80.80
2018-03-07T03:49:16.904Z,80.30
2018-03-07T03:51:44.351Z,80.30
2018-03-07T03:54:11.848Z,80.60
2018-03-07T03:56:40.070Z,80.50
2018-03-07T03:59:07.516Z,80.40
2018-03-07T04:01:34.983Z,80.60
2018-03-07T04:04:02.437Z,81.50
2018-03-07T04:06:29.889Z,81.00
2018-03-07T04:08:57.388Z,80.80
2018-03-07T04:11:24.856Z,80.80
2018-03-07T04:13:53.096Z,81.30
2018-03-07T04:16:20.547Z,81.30
2018-03-07T04:18:48.023Z,81.20
2018-03-07T04:21:15.476Z,80.90
2018-03-07T04:23:42.969Z,80.20
2018-03-07T04:26:11.187Z,79.80
2018-03-07T04:28:38.667Z,79.70
2018-03-07T04:31:06.115Z,79.80
2018-03-07T04:33:33.583Z,79.40
2018-03-07T04:36:02.548Z,79.90
2018-03-07T04:38:30.028Z,79.90
2018-03-07T04:40:57.471Z,81.00
2018-03-07T04:43:24.955Z,80.40
2018-03-07T04:45:52.433Z,80.00
2018-03-07T04:48:20.654Z,79.50
2018-03-07T04:50:48.155Z,79.50
2018-03-07T04:53:16.379Z,79.10
2018-03-07T04:55:43.896Z,79.00
2018-03-07T04:58:12.112Z,80.30
2018-03-07T05:00:39.594Z,80.10
2018-03-07T05:03:07.051Z,79.20
2018-03-07T05:05:34.511Z,79.50
2018-03-07T05:08:01.971Z,79.30
2018-03-07T05:10:30.284Z,79.00
2018-03-07T05:12:57.712Z,79.00
2018-03-07T05:15:25.203Z,80.30
2018-03-07T05:17:52.688Z,79.80
2018-03-07T05:20:20.143Z,80.00
2018-03-07T05:22:47.610Z,79.50
2018-03-07T05:25:15.088Z,79.50
2018-03-07T05:27:42.595Z,79.50
2018-03-07T05:30:10.048Z,79.30
2018-03-07T05:32:37.521Z,79.20
2018-03-07T05:35:05.007Z,79.40
2018-03-07T05:37:32.484Z,79.00
2018-03-07T05:40:00.723Z,80.80
2018-03-07T05:42:28.184Z,80.80
2018-03-07T05:44:55.692Z,80.90
2018-03-07T05:47:23.148Z,81.10
2018-03-07T05:49:50.597Z,80.10
2018-03-07T05:52:18.832Z,79.50
2018-03-07T05:54:46.279Z,79.50
2018-03-07T05:57:13.756Z,80.20
2018-03-07T05:59:41.226Z,80.20
2018-03-07T06:02:09.467Z,82.20
2018-03-07T06:04:36.924Z,82.20
2018-03-07T06:07:04.404Z,82.40
2018-03-07T06:09:32.616Z,81.50
2018-03-07T06:12:00.103Z,81.30
2018-03-07T06:14:27.609Z,81.80
2018-03-07T06:16:55.059Z,82.20
2018-03-07T06:19:23.273Z,82.20
2018-03-07T06:21:50.719Z,82.20
2018-03-07T06:24:18.199Z,82.20
2018-03-07T06:26:45.652Z,82.30
2018-03-07T06:29:13.161Z,82.30
2018-03-07T06:31:41.398Z,82.20
2018-03-07T06:34:08.883Z,82.10
2018-03-07T06:36:36.320Z,82.30
2018-03-07T06:39:03.819Z,82.10
2018-03-07T06:41:31.276Z,82.20
2018-03-07T06:43:58.722Z,82.20
2018-03-07T06:46:26.968Z,82.10
2018-03-07T06:48:54.408Z,82.10
2018-03-07T06:51:21.879Z,81.90
2018-03-07T06:53:49.394Z,81.70
2018-03-07T06:56:16.858Z,81.50
2018-03-07T06:58:44.345Z,81.30
2018-03-07T07:01:11.787Z,81.10
2018-03-07T07:03:39.266Z,81.00
2018-03-07T07:06:06.722Z,81.10
2018-03-07T07:08:34.190Z,80.80
2018-03-07T07:11:02.403Z,80.60
2018-03-07T07:13:29.908Z,80.60
2018-03-07T07:15:57.360Z,80.40
2018-03-07T07:18:24.831Z,80.40
2018-03-07T07:20:53.047Z,81.20
2018-03-07T07:23:20.504Z,80.40
2018-03-07T07:25:47.975Z,80.70
2018-03-07T07:28:15.463Z,81.10
2018-03-07T07:30:42.908Z,81.20
2018-03-07T07:33:10.353Z,81.50
2018-03-07T07:35:37.885Z,81.20
2018-03-07T07:38:05.320Z,81.10
2018-03-07T07:40:32.812Z,80.70
2018-03-07T07:43:00.252Z,80.40
2018-03-07T07:45:27.693Z,79.90
2018-03-07T07:47:55.162Z,79.60
2018-03-07T07:50:22.625Z,79.60
2018-03-07T07:52:50.103Z,79.40
2018-03-07T07:55:17.560Z,79.10
2018-03-07T07:57:45.021Z,78.70
2018-03-07T08:00:12.483Z,78.60
2018-03-07T08:02:39.952Z,78.50
2018-03-07T08:05:07.415Z,78.10
2018-03-07T08:07:34.875Z,78.20
2018-03-07T08:10:03.086Z,78.10
2018-03-07T08:12:30.578Z,78.00
2018-03-07T08:14:58.042Z,78.10
2018-03-07T08:17:25.488Z,77.80
2018-03-07T08:19:52.974Z,77.50
2018-03-07T08:22:20.421Z,77.00
2018-03-07T08:24:47.891Z,76.70
2018-03-07T08:27:16.099Z,76.20
2018-03-07T08:29:43.600Z,76.20
2018-03-07T08:32:11.055Z,76.50
2018-03-07T08:34:38.545Z,76.20
2018-03-07T08:37:06.761Z,75.20
2018-03-07T08:39:34.211Z,75.20
2018-03-07T08:42:01.701Z,74.60
2018-03-07T08:44:29.153Z,74.20
2018-03-07T08:46:56.624Z,74.30
2018-03-07T08:49:24.860Z,72.60
2018-03-07T08:51:52.333Z,72.50
2018-03-07T08:54:19.795Z,72.00
2018-03-07T08:56:47.287Z,71.10
2018-03-07T08:59:15.504Z,71.00
2018-03-07T09:01:42.957Z,71.00
2018-03-07T09:04:10.425Z,69.00
2018-03-07T09:06:37.874Z,68.60
2018-03-07T09:09:05.344Z,68.80
2018-03-07T09:11:32.791Z,67.40
2018-03-07T09:14:00.271Z,65.80
2018-03-07T09:16:27.754Z,65.70
2018-03-07T09:18:56.025Z,63.20
2018-03-07T09:21:24.247Z,60.40
2018-03-07T09:23:51.719Z,60.30
2018-03-07T09:26:19.168Z,61.20
2018-03-07T09:28:46.656Z,61.90
2018-03-07T09:31:14.098Z,61.70
2018-03-07T09:33:41.577Z,61.70
2018-03-07T09:36:09.808Z,59.00
2018-03-07T09:38:37.294Z,58.90
2018-03-07T09:41:05.517Z,59.90
2018-03-07T09:43:33.017Z,59.30
2018-03-07T09:46:00.500Z,58.80
2018-03-07T09:48:28.715Z,57.60
2018-03-07T09:50:56.216Z,57.50
2018-03-07T09:53:23.666Z,57.60
2018-03-07T09:55:51.135Z,57.70
2018-03-07T09:58:18.610Z,57.90
2018-03-07T10:00:46.087Z,58.00
2018-03-07T10:03:13.552Z,58.10
2018-03-07T10:05:41.025Z,58.40
2018-03-07T10:08:08.524Z,59.10
2018-03-07T10:10:35.983Z,58.90
2018-03-07T10:13:04.210Z,58.80
2018-03-07T10:15:31.684Z,58.80
2018-03-07T10:17:59.134Z,59.40
2018-03-07T10:20:26.611Z,60.50
2018-03-07T10:22:54.070Z,61.60
2018-03-07T10:25:21.568Z,63.40
2018-03-07T10:27:49.037Z,64.40
2018-03-07T10:30:16.492Z,64.50
2018-03-07T10:32:43.980Z,63.80
2018-03-07T10:35:11.433Z,62.50
2018-03-07T10:37:39.010Z,58.00
2018-03-07T10:40:06.420Z,57.30
2018-03-07T10:42:33.874Z,54.90
2018-03-07T10:45:01.354Z,54.20
2018-03-07T10:47:28.875Z,52.40
2018-03-07T10:49:56.340Z,50.70
2018-03-07T10:52:23.787Z,50.90
2018-03-07T10:54:51.288Z,51.30
2018-03-07T10:57:18.726Z,51.00
2018-03-07T10:59:46.230Z,50.70
2018-03-07T11:02:14.436Z,50.60
2018-03-07T11:04:41.892Z,50.50
2018-03-07T11:07:09.358Z,50.70
2018-03-07T11:09:36.815Z,50.10
2018-03-07T11:12:04.279Z,50.10
2018-03-07T11:14:31.739Z,49.20
2018-03-07T11:16:59.245Z,48.90
2018-03-07T11:19:27.455Z,49.00
2018-03-07T11:21:54.911Z,48.90
2018-03-07T11:24:22.392Z,48.90
2018-03-07T11:26:49.856Z,48.60
2018-03-07T11:29:17.319Z,47.50
2018-03-07T11:31:44.792Z,47.10
2018-03-07T11:34:12.247Z,47.00
2018-03-07T11:36:40.475Z,46.20
2018-03-07T11:39:07.948Z,46.10
2018-03-07T11:41:35.392Z,45.90
2018-03-07T11:44:02.879Z,46.30
2018-03-07T11:46:30.336Z,46.60
2018-03-07T11:48:57.793Z,46.20
2018-03-07T11:51:25.287Z,46.30
2018-03-07T11:53:52.756Z,45.80
2018-03-07T11:56:20.257Z,45.70
2018-03-07T11:58:47.741Z,46.10
2018-03-07T12:01:15.970Z,46.10
2018-03-07T12:03:43.419Z,46.10
2018-03-07T12:06:10.899Z,46.00
2018-03-07T12:08:38.356Z,46.10
2018-03-07T12:11:05.835Z,46.40
2018-03-07T12:13:34.087Z,46.20
2018-03-07T12:16:01.540Z,46.20
2018-03-07T12:18:29.022Z,46.20
2018-03-07T12:20:57.253Z,45.40
2018-03-07T12:23:24.734Z,45.40
2018-03-07T12:25:52.181Z,45.60
2018-03-07T12:28:19.668Z,44.60
2018-03-07T12:30:47.892Z,44.30
2018-03-07T12:33:15.335Z,44.30
2018-03-07T12:35:42.810Z,44.20
2018-03-07T12:38:10.262Z,43.60
2018-03-07T12:40:37.732Z,44.00
2018-03-07T12:43:05.178Z,43.60
2018-03-07T12:45:32.724Z,43.30
2018-03-07T12:48:00.155Z,42.50
2018-03-07T12:50:27.614Z,42.60
2018-03-07T12:52:55.086Z,42.30
2018-03-07T12:55:22.526Z,42.10
2018-03-07T12:57:49.992Z,41.80
2018-03-07T13:00:17.449Z,41.80
2018-03-07T13:02:44.930Z,41.90
2018-03-07T13:05:12.405Z,42.20
2018-03-07T13:07:39.892Z,42.70
2018-03-07T13:10:08.156Z,42.80
2018-03-07T13:12:36.351Z,43.10
2018-03-07T13:15:03.827Z,43.20
2018-03-07T13:17:31.320Z,43.40
2018-03-07T13:19:58.786Z,43.50
2018-03-07T13:22:26.265Z,44.00
2018-03-07T13:24:53.718Z,44.40
2018-03-07T13:27:21.928Z,45.20
2018-03-07T13:29:49.367Z,45.20
2018-03-07T13:32:16.855Z,45.60
2018-03-07T13:34:44.316Z,45.90
2018-03-07T13:37:11.793Z,46.30
2018-03-07T13:39:39.260Z,46.40
2018-03-07T13:42:06.737Z,46.80
2018-03-07T13:44:34.948Z,47.10
2018-03-07T13:47:02.517Z,47.00
2018-03-07T13:49:29.967Z,46.70
2018-03-07T13:51:57.430Z,46.60
2018-03-07T13:54:24.901Z,45.70
2018-03-07T13:56:52.463Z,45.50
2018-03-07T13:59:20.033Z,45.70
2018-03-07T14:01:47.479Z,45.60
2018-03-07T14:04:15.735Z,45.10
2018-03-07T14:06:43.201Z,45.20
2018-03-07T14:09:10.681Z,44.90
2018-03-07T14:11:39.010Z,44.70
2018-03-07T14:14:06.462Z,44.30
2018-03-07T14:16:33.939Z,44.50
2018-03-07T14:19:01.464Z,43.90
2018-03-07T14:21:28.923Z,44.20
2018-03-07T14:23:56.381Z,43.70
2018-03-07T14:26:23.846Z,44.10
2018-03-07T14:28:51.293Z,44.50
2018-03-07T14:31:18.768Z,43.60
2018-03-07T14:33:46.246Z,42.80
2018-03-07T14:36:13.823Z,43.20
2018-03-07T14:38:41.281Z,42.60
2018-03-07T14:41:09.495Z,43.10
2018-03-07T14:43:36.981Z,43.10
2018-03-07T14:46:04.423Z,43.40
2018-03-07T14:48:31.900Z,43.00
2018-03-07T14:50:59.352Z,42.60
2018-03-07T14:53:26.847Z,42.80
2018-03-07T14:55:54.287Z,43.10
2018-03-07T14:58:21.754Z,42.40
2018-03-07T15:00:49.228Z,42.60
2018-03-07T15:03:16.680Z,42.00
2018-03-07T15:05:44.936Z,43.00
2018-03-07T15:08:13.169Z,43.80
2018-03-07T15:10:40.643Z,43.10
2018-03-07T15:13:08.108Z,43.00
2018-03-07T15:15:35.584Z,42.80
2018-03-07T15:18:03.836Z,43.80
2018-03-07T15:20:31.289Z,43.50
2018-03-07T15:22:58.773Z,43.40
2018-03-07T15:25:26.976Z,44.80
2018-03-07T15:27:54.485Z,44.00
2018-03-07T15:30:21.945Z,44.00
2018-03-07T15:32:49.460Z,44.20
2018-03-07T15:35:16.916Z,43.90
2018-03-07T15:37:44.373Z,44.00
2018-03-07T15:40:11.855Z,44.10
2018-03-07T15:42:39.327Z,44.30
2018-03-07T15:45:06.819Z,44.50
2018-03-07T15:47:34.283Z,44.60
2018-03-07T15:50:01.794Z,44.20
2018-03-07T15:52:29.256Z,44.20
2018-03-07T15:54:56.727Z,44.40
2018-03-07T15:57:24.192Z,44.60
2018-03-07T15:59:52.407Z,45.20
2018-03-07T16:02:19.884Z,45.10
2018-03-07T16:04:47.370Z,45.40
2018-03-07T16:07:15.617Z,46.20
2018-03-07T16:09:43.100Z,46.20
2018-03-07T16:12:10.553Z,46.60
2018-03-07T16:14:38.815Z,47.30
2018-03-07T16:17:06.267Z,46.70
2018-03-07T16:19:33.742Z,46.80
2018-03-07T16:22:02.002Z,46.90
2018-03-07T16:24:30.259Z,47.30
2018-03-07T16:26:57.738Z,47.20
2018-03-07T16:29:25.217Z,49.60
2018-03-07T16:31:53.460Z,50.40
2018-03-07T16:34:20.920Z,50.30
2018-03-07T16:36:48.400Z,51.10
2018-03-07T16:39:16.676Z,51.90
2018-03-07T16:41:44.920Z,52.80
2018-03-07T16:44:12.451Z,52.70
2018-03-07T16:46:39.907Z,53.30
2018-03-07T16:49:07.402Z,53.70
2018-03-07T16:51:34.855Z,54.20
2018-03-07T16:54:02.351Z,53.90
2018-03-07T16:56:30.621Z,53.70
2018-03-07T16:58:58.860Z,53.60
2018-03-07T17:01:26.330Z,53.50
2018-03-07T17:03:53.839Z,53.30
2018-03-07T17:06:21.312Z,53.40
2018-03-07T17:08:48.802Z,53.30
2018-03-07T17:11:16.252Z,53.30
2018-03-07T17:13:43.706Z,53.50
2018-03-07T17:16:11.190Z,53.40
2018-03-07T17:18:39.446Z,53.40
2018-03-07T17:21:06.923Z,53.40
2018-03-07T17:23:34.376Z,53.40
2018-03-07T17:26:02.633Z,53.00
2018-03-07T17:28:30.114Z,53.00
2018-03-07T17:30:57.603Z,53.70
2018-03-07T17:33:25.080Z,53.00
2018-03-07T17:35:52.569Z,53.00
2018-03-07T17:38:20.815Z,53.30
2018-03-07T17:40:48.267Z,53.20
2018-03-07T17:43:15.786Z,53.30
2018-03-07T17:45:43.229Z,54.10
2018-03-07T17:48:10.692Z,53.60
2018-03-07T17:50:38.183Z,53.90
2018-03-07T17:53:05.640Z,54.40
2018-03-07T17:55:33.136Z,54.70
2018-03-07T17:58:01.375Z,56.00
2018-03-07T18:00:28.854Z,55.90
2018-03-07T18:02:56.305Z,56.50
2018-03-07T18:05:23.779Z,56.80
2018-03-07T18:07:51.256Z,56.80
2018-03-07T18:10:18.793Z,57.20
2018-03-07T18:12:46.241Z,57.50
2018-03-07T18:15:13.694Z,57.50
2018-03-07T18:17:41.156Z,57.10
2018-03-07T18:20:09.403Z,57.50
2018-03-07T18:22:36.881Z,57.50
2018-03-07T18:25:04.341Z,57.50
2018-03-07T18:27:31.823Z,57.80
2018-03-07T18:29:59.293Z,57.90
2018-03-07T18:32:26.778Z,57.80
2018-03-07T18:34:54.390Z,57.60
2018-03-07T18:37:22.634Z,57.60
2018-03-07T18:39:50.217Z,57.50
2018-03-07T18:42:17.676Z,57.60
2018-03-07T18:44:45.908Z,58.10
2018-03-07T18:47:13.387Z,58.00
2018-03-07T18:49:40.843Z,58.10
2018-03-07T18:52:08.320Z,58.20
2018-03-07T18:54:36.529Z,58.40
2018-03-07T18:57:04.000Z,58.40
2018-03-07T18:59:31.475Z,58.30
2018-03-07T19:01:58.945Z,58.30
2018-03-07T19:04:27.286Z,58.40
2018-03-07T19:06:54.773Z,58.50
2018-03-07T19:09:22.271Z,58.50
2018-03-07T19:11:50.480Z,58.90
2018-03-07T19:14:17.991Z,58.90
2018-03-07T19:16:46.221Z,59.30
2018-03-07T19:19:13.680Z,59.30
2018-03-07T19:21:41.171Z,59.70
2018-03-07T19:24:09.434Z,60.60
2018-03-07T19:26:36.896Z,60.40
2018-03-07T19:29:05.185Z,61.30
2018-03-07T19:31:33.441Z,61.40
2018-03-07T19:34:00.893Z,61.40
2018-03-07T19:36:28.396Z,61.80
2018-03-07T19:38:55.844Z,62.20
2018-03-07T19:41:23.337Z,62.50
2018-03-07T19:43:50.802Z,62.60
2018-03-07T19:46:18.249Z,63.00
2018-03-07T19:48:45.744Z,62.90
2018-03-07T19:51:13.995Z,62.90
2018-03-07T19:53:41.483Z,63.00
2018-03-07T19:56:09.706Z,63.40
2018-03-07T19:58:37.204Z,63.40
2018-03-07T20:01:04.663Z,63.70
2018-03-07T20:03:32.921Z,64.00
2018-03-07T20:06:00.390Z,63.90
2018-03-07T20:08:27.892Z,63.90
2018-03-07T20:10:55.360Z,64.10
2018-03-07T20:13:22.828Z,64.20
2018-03-07T20:15:50.274Z,64.40
2018-03-07T20:18:17.747Z,64.40
2018-03-07T20:20:45.283Z,64.70
2018-03-07T20:23:12.948Z,64.90
2018-03-07T20:25:40.408Z,65.00
2018-03-07T20:28:07.856Z,65.20
2018-03-07T20:30:35.370Z,65.10
2018-03-07T20:33:03.607Z,65.20
2018-03-07T20:35:31.060Z,65.10
2018-03-07T20:37:58.542Z,65.00
2018-03-07T20:40:26.049Z,64.90
2018-03-07T20:42:53.503Z,64.90
2018-03-07T20:45:20.971Z,64.80
2018-03-07T20:47:48.485Z,64.90
2018-03-07T20:50:16.720Z,65.30
2018-03-07T20:52:44.289Z,65.10
2018-03-07T20:55:11.743Z,65.70
2018-03-07T20:57:39.187Z,65.80
2018-03-07T21:00:06.702Z,65.50
2018-03-07T21:02:34.167Z,65.70
2018-03-07T21:05:01.665Z,65.60
2018-03-07T21:07:29.112Z,65.60
2018-03-07T21:09:56.614Z,65.60
2018-03-07T21:12:24.819Z,65.60
2018-03-07T21:14:52.346Z,65.60
2018-03-07T21:17:19.778Z,65.90
2018-03-07T21:19:47.278Z,66.00
2018-03-07T21:22:14.728Z,66.20
2018-03-07T21:24:42.260Z,66.20
2018-03-07T21:27:10.530Z,66.60
2018-03-07T21:29:37.989Z,66.50
2018-03-07T21:32:06.233Z,66.80
2018-03-07T21:34:33.700Z,66.70
2018-03-07T21:37:01.228Z,66.70
2018-03-07T21:39:28.691Z,66.60
2018-03-07T21:41:56.162Z,67.60
2018-03-07T21:44:23.681Z,66.80
2018-03-07T21:46:51.163Z,66.80
2018-03-07T21:49:18.624Z,66.60
2018-03-07T21:51:46.075Z,66.80
2018-03-07T21:54:13.556Z,66.70
2018-03-07T21:56:41.014Z,66.70
2018-03-07T21:59:08.507Z,66.60
2018-03-07T22:01:36.060Z,67.00
2018-03-07T22:04:04.307Z,67.80
2018-03-07T22:06:31.785Z,67.80
2018-03-07T22:09:00.017Z,69.10
2018-03-07T22:11:27.488Z,68.20
2018-03-07T22:13:54.944Z,68.50
2018-03-07T22:16:22.437Z,68.30
2018-03-07T22:18:50.657Z,68.20
2018-03-07T22:21:18.153Z,68.90
2018-03-07T22:23:46.380Z,67.80
2018-03-07T22:26:13.827Z,67.70
2018-03-07T22:28:41.306Z,68.10
2018-03-07T22:31:08.778Z,68.00
2018-03-07T22:33:36.247Z,67.90
2018-03-07T22:36:03.688Z,67.80
2018-03-07T22:38:31.169Z,68.00
2018-03-07T22:40:59.424Z,68.10
2018-03-07T22:43:26.885Z,67.90
2018-03-07T22:45:54.356Z,68.00
2018-03-07T22:48:22.570Z,68.60
2018-03-07T22:50:50.046Z,67.60
2018-03-07T22:53:17.504Z,67.60
2018-03-07T22:55:44.973Z,67.60
2018-03-07T22:58:12.417Z,67.50
2018-03-07T23:00:45.595Z,67.60
2018-03-07T23:03:13.050Z,67.60
2018-03-07T23:05:40.512Z,67.70
2018-03-07T23:08:08.016Z,68.00
2018-03-07T23:10:35.450Z,68.30
2018-03-07T23:13:02.933Z,68.40
2018-03-07T23:15:31.249Z,68.50
2018-03-07T23:17:58.726Z,68.50
2018-03-07T23:20:26.173Z,68.60
2018-03-07T23:22:53.660Z,68.70
2018-03-07T23:25:21.115Z,69.00
2018-03-07T23:27:48.556Z,69.10
2018-03-07T23:30:16.034Z,69.40
2018-03-07T23:32:44.269Z,70.10
2018-03-07T23:35:12.562Z,70.10
2018-03-07T23:37:40.017Z,70.10
2018-03-07T23:40:07.500Z,70.10
2018-03-07T23:42:34.962Z,70.10
2018-03-07T23:45:02.428Z,70.40
2018-03-07T23:47:30.666Z,70.90
2018-03-07T23:49:58.111Z,70.90
2018-03-07T23:52:25.600Z,71.20
2018-03-07T23:54:53.045Z,71.50
2018-03-07T23:57:20.558Z,71.70
2018-03-07T23:59:47.993Z,71.40
